The Azur — 3EPR5 — position and weather

sailwx.info

Track history (hours):
 
Tides and Currents Weather Stations Pressure Air Temp Water Temp Dewpoint Dewpoint Depression Visibility Wind Speed Wind Dir Waves Ship Positions

The Azur

Operator: Ravenscroft Shipping

Last reported at 2014-Nov-06 04:32 UTC. Time now 2017-Mar-25 19:40 UTC.
Position N 38°02' E 024°11'.
Warning: this ship's position is years out of date!

Length 142 m; draft 5.9 m.

Type: Passenger vessel. MMSI: 354952000.

Date/timePositionNaut miles runAvg speedWind from/ knotsBaromVisibWave heightAir tempDewpointWater temp
2014-Nov-06 04:32N 38°02' E 024°11'1210.4
2014-Nov-06 03:21N 37°51' E 024°18'1110.5
2014-Nov-06 02:19N 37°42' E 024°26'810.4
2014-Nov-06 01:33N 37°35' E 024°30'1010.5
2014-Nov-06 00:33N 37°26' E 024°36'1110.5
2014-Nov-05 23:33N 37°16' E 024°42'1110.8
2014-Nov-05 22:33N 37°07' E 024°48'1110.9
2014-Nov-05 21:33N 36°57' E 024°54'1010.6
2014-Nov-05 20:33N 36°52' E 025°06'1111.0
2014-Nov-05 19:33N 36°50' E 025°19'1111.1
2014-Nov-05 18:33N 36°44' E 025°32'1111.0
2014-Nov-05 17:31N 36°39' E 025°44'1312.8
2014-Nov-05 16:33N 36°32' E 025°57'1414.3
2014-Nov-05 15:33N 36°25' E 026°13'1514.8
2014-Nov-05 14:32N 36°19' E 026°30'  
2014-Nov-02 02:18N 32°54' E 034°44'  
2014-Oct-28 18:18N 35°12' E 025°45'  
Track history (hours):
 
Tides and Currents Weather Stations Pressure Air Temp Water Temp Dewpoint Dewpoint Depression Visibility Wind Speed Wind Dir Waves Ship Positions

The Azur

Operator: Ravenscroft Shipping

Last reported at 2014-Nov-06 04:32 UTC. Time now 2017-Mar-25 19:40 UTC.
Position N 38°02' E 024°11'.
Warning: this ship's position is years out of date!

Length 142 m; draft 5.9 m.

Type: Passenger vessel. MMSI: 354952000.

Date/timePositionNaut miles runAvg speedWind from/ knotsBaromVisibWave heightAir tempDewpointWater temp
2014-Nov-06 04:32N 38°02' E 024°11'1210.4
2014-Nov-06 03:21N 37°51' E 024°18'1110.5
2014-Nov-06 02:19N 37°42' E 024°26'810.4
2014-Nov-06 01:33N 37°35' E 024°30'1010.5
2014-Nov-06 00:33N 37°26' E 024°36'1110.5
2014-Nov-05 23:33N 37°16' E 024°42'1110.8
2014-Nov-05 22:33N 37°07' E 024°48'1110.9
2014-Nov-05 21:33N 36°57' E 024°54'1010.6
2014-Nov-05 20:33N 36°52' E 025°06'1111.0
2014-Nov-05 19:33N 36°50' E 025°19'1111.1
2014-Nov-05 18:33N 36°44' E 025°32'1111.0
2014-Nov-05 17:31N 36°39' E 025°44'1312.8
2014-Nov-05 16:33N 36°32' E 025°57'1414.3
2014-Nov-05 15:33N 36°25' E 026°13'1514.8
2014-Nov-05 14:32N 36°19' E 026°30'  
2014-Nov-02 02:18N 32°54' E 034°44'  
2014-Oct-28 18:18N 35°12' E 025°45'  

Dump ship's entire track history